Time;durP1;ratioP1;P1;durP2;ratioP2;P2;SDS_P1;SDS_P2;PMS_P1;PMS_P2;Temp;Humidity;BMP_temperature;BMP_pressure;BME280_temperature;BME280_humidity;BME280_pressure;Samples;Min_cycle;Max_cycle;Signal;HPM_P1;HPM_P2
2023/06/03 00:07:01;;;;;;;10.25;8.15;;;;;;;28.19;39.82;100957.47;21072681;28;20044;-62
2023/06/03 00:17:04;;;;;;;8.32;7.47;;;;;;;28.23;39.72;100950.84;21088126;28;20052;-62
2023/06/03 00:27:05;;;;;;;8.02;7.22;;;;;;;28.23;39.83;100958.47;21086877;28;20048;-61
2023/06/03 00:37:07;;;;;;;8.52;7.55;;;;;;;28.25;40.01;100961.78;21086502;28;20048;-61
2023/06/03 00:47:09;;;;;;;7.82;7.05;;;;;;;28.26;40.04;100940.91;21085231;28;20039;-63
2023/06/03 00:57:10;;;;;;;8.55;7.68;;;;;;;28.26;40.05;100953.00;21083707;28;20040;-62
2023/06/03 01:07:46;;;;;;;8.55;7.65;;;;;;;28.25;39.93;100964.59;21082037;28;20039;-62
2023/06/03 01:17:51;;;;;;;13.38;6.93;;;;;;;28.28;40.75;100973.19;21083470;28;20387;-61
2023/06/03 01:27:52;;;;;;;9.15;7.82;;;;;;;28.23;40.35;100959.31;21066771;28;20040;-61
2023/06/03 01:37:55;;;;;;;9.80;7.13;;;;;;;28.30;40.48;100964.41;21017012;28;20043;-61
2023/06/03 01:47:56;;;;;;;8.80;7.13;;;;;;;28.32;40.34;100979.81;21041725;28;20040;-61
2023/06/03 01:57:58;;;;;;;8.18;7.35;;;;;;;28.35;40.40;100996.06;21078844;28;20483;-62
2023/06/03 02:07:59;;;;;;;7.75;6.57;;;;;;;28.34;40.20;101005.66;21080115;28;20036;-62
2023/06/03 02:18:01;;;;;;;7.75;6.93;;;;;;;28.28;40.29;100987.28;21076774;28;20044;-62
2023/06/03 02:28:07;;;;;;;7.18;6.47;;;;;;;28.39;40.28;100992.59;21076740;28;20452;-61
2023/06/03 02:38:08;;;;;;;6.60;5.90;;;;;;;28.32;40.08;100974.19;21075097;28;20479;-62
2023/06/03 02:48:10;;;;;;;7.53;6.57;;;;;;;28.26;39.77;100963.41;21062002;28;20033;-62
2023/06/03 02:58:15;;;;;;;8.40;6.95;;;;;;;28.28;38.94;100986.44;21040359;28;20048;-61
2023/06/03 03:08:20;;;;;;;7.70;6.70;;;;;;;28.04;38.09;100989.72;21076454;28;20085;-61
2023/06/03 03:18:25;;;;;;;8.15;6.53;;;;;;;27.69;37.67;100977.53;21074283;28;20376;-62
2023/06/03 03:28:27;;;;;;;6.38;5.78;;;;;;;27.68;37.19;100999.22;21075725;28;20036;-61
2023/06/03 03:38:28;;;;;;;8.60;6.25;;;;;;;27.50;37.02;100992.69;21073583;28;20036;-62
2023/06/03 03:48:30;;;;;;;6.43;5.63;;;;;;;27.39;36.85;100991.31;21072965;28;20391;-63
2023/06/03 03:58:40;;;;;;;6.93;5.88;;;;;;;27.29;36.70;100984.00;21074128;28;20033;-61
2023/06/03 04:08:47;;;;;;;6.57;5.57;;;;;;;27.20;36.61;100977.50;21079995;28;20583;-62
2023/06/03 04:18:49;;;;;;;6.38;5.78;;;;;;;27.13;36.62;100962.28;21088518;28;20036;-62
2023/06/03 04:28:50;;;;;;;7.55;5.47;;;;;;;27.06;36.35;100971.94;21086301;28;20438;-62
2023/06/03 04:38:52;;;;;;;6.43;5.18;;;;;;;26.90;36.55;100967.09;21086017;28;20117;-62
2023/06/03 04:48:55;;;;;;;6.75;5.38;;;;;;;26.90;36.15;100975.50;21085381;28;20040;-62
2023/06/03 04:58:57;;;;;;;6.05;5.05;;;;;;;26.83;36.04;100973.97;21084136;28;20097;-63
2023/06/03 05:08:58;;;;;;;5.53;4.90;;;;;;;26.79;36.13;100986.97;21081840;28;20563;-62
2023/06/03 05:18:59;;;;;;;6.28;4.65;;;;;;;26.72;36.00;100983.00;21083634;28;20480;-62
2023/06/03 05:29:01;;;;;;;5.93;4.78;;;;;;;26.60;36.04;100977.94;21082806;28;20449;-62
2023/06/03 05:39:05;;;;;;;7.90;4.45;;;;;;;26.55;35.85;100972.44;21081993;28;20040;-62
2023/06/03 05:49:06;;;;;;;4.78;4.28;;;;;;;26.58;35.90;100999.91;21080139;28;20040;-62
2023/06/03 05:59:10;;;;;;;4.53;4.05;;;;;;;26.55;35.69;100990.13;21080260;28;20055;-62
2023/06/03 06:09:12;;;;;;;4.82;4.32;;;;;;;26.49;35.66;100990.56;20996452;28;20032;-62
2023/06/03 06:19:14;;;;;;;4.80;4.28;;;;;;;26.47;35.65;100992.84;21028403;28;20044;-62
2023/06/03 06:29:15;;;;;;;4.60;3.65;;;;;;;26.43;35.55;100991.78;21077833;28;20482;-62
2023/06/03 06:39:53;;;;;;;4.60;3.90;;;;;;;26.30;35.45;100982.31;21076632;28;20074;-62
2023/06/03 06:49:56;;;;;;;4.60;4.20;;;;;;;26.35;35.16;100984.97;21077195;28;20391;-62
2023/06/03 06:59:57;;;;;;;3.75;3.33;;;;;;;26.27;35.30;100966.91;21069762;28;20458;-62
2023/06/03 07:10:04;;;;;;;4.20;3.50;;;;;;;26.24;35.19;100966.72;21076524;28;20070;-62
2023/06/03 07:20:06;;;;;;;3.88;3.53;;;;;;;26.20;35.41;100963.72;21073346;28;20098;-61
2023/06/03 07:30:22;;;;;;;4.55;3.60;;;;;;;26.15;35.09;100980.66;21075785;28;20057;-61
2023/06/03 07:40:42;;;;;;;4.35;3.65;;;;;;;26.10;35.17;100953.56;21078329;28;20391;-62
2023/06/03 07:50:49;;;;;;;4.10;3.42;;;;;;;26.01;34.93;100963.88;21089128;28;20125;-62
2023/06/03 08:00:52;;;;;;;4.07;3.67;;;;;;;26.05;34.95;100978.09;21090526;28;20048;-61
2023/06/03 08:10:54;;;;;;;5.00;3.72;;;;;;;25.97;34.97;100968.44;21088020;28;20413;-61
2023/06/03 08:21:01;;;;;;;3.70;3.10;;;;;;;25.97;34.60;100973.22;21088605;28;20483;-61
2023/06/03 08:31:05;;;;;;;3.10;2.80;;;;;;;25.95;34.69;100967.13;21086590;28;20056;-62
2023/06/03 08:41:09;;;;;;;3.90;3.35;;;;;;;25.89;34.56;100957.13;21086818;28;20066;-62
2023/06/03 08:51:15;;;;;;;5.25;3.35;;;;;;;25.84;34.52;100970.16;21083826;28;20483;-61
2023/06/03 09:01:31;;;;;;;6.85;3.10;;;;;;;25.78;34.33;100968.59;21084582;28;20078;-63
2023/06/03 09:11:32;;;;;;;5.38;3.25;;;;;;;25.77;33.66;100966.09;21082893;28;20070;-62
2023/06/03 09:21:35;;;;;;;5.63;3.00;;;;;;;25.69;33.07;100978.84;21083803;28;20098;-63
2023/06/03 09:31:36;;;;;;;4.05;3.53;;;;;;;25.62;32.99;100995.25;21079665;28;20048;-63
2023/06/03 09:41:41;;;;;;;4.20;3.25;;;;;;;25.54;32.66;100998.78;21081173;28;20475;-62
2023/06/03 09:51:44;;;;;;;3.33;3.03;;;;;;;25.48;32.96;101005.63;21078005;28;20051;-62
2023/06/03 10:01:50;;;;;;;3.53;3.10;;;;;;;25.26;32.82;100990.34;21078503;28;20048;-63
2023/06/03 10:11:53;;;;;;;3.30;2.90;;;;;;;25.39;32.76;101029.91;21079207;28;20040;-63
2023/06/03 10:21:55;;;;;;;3.30;2.80;;;;;;;25.35;32.62;101032.50;21076014;28;20048;-62
2023/06/03 10:31:58;;;;;;;4.20;2.75;;;;;;;25.13;32.46;101010.75;21077805;28;20105;-62
2023/06/03 10:42:02;;;;;;;2.78;2.58;;;;;;;25.17;32.24;101022.19;21077925;28;20043;-63
2023/06/03 10:52:18;;;;;;;2.80;2.45;;;;;;;25.19;32.47;101059.94;21070003;28;20115;-63
2023/06/03 11:02:20;;;;;;;3.08;2.78;;;;;;;25.15;32.10;101086.88;21068231;28;20391;-62
2023/06/03 11:12:21;;;;;;;3.20;2.90;;;;;;;25.09;32.39;101080.53;21071736;28;20040;-62
2023/06/03 11:22:29;;;;;;;2.85;2.63;;;;;;;25.08;32.61;101108.88;21092411;28;20044;-62
2023/06/03 11:32:32;;;;;;;3.20;2.90;;;;;;;24.99;32.56;101102.25;21090397;28;20062;-63
2023/06/03 11:42:48;;;;;;;2.88;2.58;;;;;;;25.05;32.27;101115.03;21088474;28;20547;-63
2023/06/03 11:52:51;;;;;;;3.63;2.80;;;;;;;25.05;32.12;101135.47;21088399;28;20475;-63
2023/06/03 12:02:53;;;;;;;2.70;2.50;;;;;;;25.01;32.21;101141.97;21088768;28;20047;-63
2023/06/03 12:12:57;;;;;;;3.40;2.67;;;;;;;25.02;32.48;101157.66;21086597;28;20044;-63
2023/06/03 12:23:03;;;;;;;4.95;3.30;;;;;;;25.04;33.69;101174.97;21086673;28;20040;-62
2023/06/03 12:33:05;;;;;;;3.75;2.78;;;;;;;25.09;34.42;101183.31;21083472;28;20044;-62
2023/06/03 12:43:16;;;;;;;3.75;2.75;;;;;;;25.14;34.71;101208.44;21084714;28;20048;-63
2023/06/03 12:53:18;;;;;;;3.13;2.83;;;;;;;25.20;34.75;101214.78;21084706;28;20036;-63
2023/06/03 13:03:19;;;;;;;3.28;2.85;;;;;;;25.22;34.80;101218.97;21083098;28;20085;-63
2023/06/03 13:13:21;;;;;;;3.30;2.72;;;;;;;25.24;35.11;101213.88;21080882;28;20438;-63
2023/06/03 13:23:22;;;;;;;3.38;2.65;;;;;;;25.22;35.12;101204.97;21082846;28;20040;-63
2023/06/03 13:33:23;;;;;;;3.95;2.65;;;;;;;25.24;35.52;101216.69;21080737;28;20040;-63
2023/06/03 13:43:25;;;;;;;4.20;2.85;;;;;;;25.42;35.69;101230.97;21080604;28;20040;-63
2023/06/03 13:53:26;;;;;;;3.88;2.80;;;;;;;25.43;35.67;101238.25;21077998;28;20044;-63
2023/06/03 14:03:27;;;;;;;3.38;2.90;;;;;;;25.45;35.63;101255.59;21078973;28;20048;-63
2023/06/03 14:13:29;;;;;;;3.05;2.38;;;;;;;25.45;35.55;101250.00;21078127;28;20105;-62
2023/06/03 14:23:30;;;;;;;4.25;2.75;;;;;;;25.47;36.12;101256.94;21067685;28;20044;-62
2023/06/03 14:33:31;;;;;;;5.40;2.88;;;;;;;25.43;35.92;101257.84;21038156;28;20105;-62
2023/06/03 14:43:33;;;;;;;3.33;2.50;;;;;;;25.50;35.91;101277.94;21078399;28;20097;-62
2023/06/03 14:53:34;;;;;;;5.15;3.83;;;;;;;25.50;35.96;101281.56;21075137;28;20048;-62
2023/06/03 15:03:38;;;;;;;4.25;3.60;;;;;;;25.48;35.83;101280.22;21076912;28;20036;-62
2023/06/03 15:13:40;;;;;;;4.93;4.22;;;;;;;25.49;36.09;101298.69;21074983;28;20048;-62
2023/06/03 15:23:51;;;;;;;5.00;4.03;;;;;;;25.48;36.51;101313.84;21075022;28;20040;-65
2023/06/03 15:33:53;;;;;;;6.07;4.68;;;;;;;25.41;36.25;101316.16;21075598;28;20380;-62
2023/06/03 15:43:55;;;;;;;6.20;4.68;;;;;;;25.33;36.04;101326.91;21073992;28;20101;-62
2023/06/03 15:53:56;;;;;;;5.72;4.55;;;;;;;25.49;36.04;101357.53;21074519;28;20117;-63
2023/06/03 16:03:57;;;;;;;6.55;4.22;;;;;;;25.29;36.18;101333.41;21081203;28;20052;-62
2023/06/03 16:13:59;;;;;;;7.85;5.25;;;;;;;25.45;36.36;101359.25;21089959;28;20206;-62
2023/06/03 16:24:01;;;;;;;6.82;4.72;;;;;;;25.43;36.27;101351.16;21087174;28;20066;-61
2023/06/03 16:34:04;;;;;;;5.82;4.88;;;;;;;25.44;35.95;101340.78;21086222;28;20044;-61
2023/06/03 16:44:08;;;;;;;6.07;4.70;;;;;;;25.46;36.23;101344.09;21087084;28;20360;-61
2023/06/03 16:54:10;;;;;;;5.65;4.25;;;;;;;25.43;36.36;101353.97;21084143;28;20172;-62
2023/06/03 17:04:12;;;;;;;5.50;5.00;;;;;;;25.44;35.77;101366.00;21084275;28;20048;-62
2023/06/03 17:14:16;;;;;;;5.10;4.60;;;;;;;25.37;36.33;101365.53;21084232;28;20047;-62
2023/06/03 17:24:18;;;;;;;4.90;4.35;;;;;;;25.42;36.11;101366.28;21081440;28;20032;-62
2023/06/03 17:34:19;;;;;;;5.82;4.90;;;;;;;25.39;35.97;101361.31;21083399;28;20101;-62
2023/06/03 17:44:21;;;;;;;5.57;5.07;;;;;;;25.42;36.15;101371.06;21083397;28;20040;-62
2023/06/03 17:54:22;;;;;;;6.38;4.97;;;;;;;25.33;36.12;101377.31;21080687;28;20044;-62
2023/06/03 18:04:25;;;;;;;5.78;5.18;;;;;;;25.39;35.96;101378.13;21080980;28;20085;-62
2023/06/03 18:14:29;;;;;;;6.22;5.63;;;;;;;25.35;36.26;101385.44;21078556;28;20479;-63
2023/06/03 18:24:32;;;;;;;6.10;5.50;;;;;;;25.31;36.36;101384.38;21078215;28;20036;-63
2023/06/03 18:34:34;;;;;;;7.10;5.70;;;;;;;25.32;36.04;101403.69;21076881;28;20479;-62
2023/06/03 18:44:35;;;;;;;7.70;6.28;;;;;;;25.30;36.13;101379.91;21076881;28;20105;-62
2023/06/03 18:54:37;;;;;;;9.45;6.30;;;;;;;25.32;36.19;101372.88;21075232;28;20052;-62
2023/06/03 19:04:39;;;;;;;8.07;6.53;;;;;;;25.33;36.12;101376.50;21075189;28;20040;-62
2023/06/03 19:14:40;;;;;;;8.88;6.55;;;;;;;25.24;35.80;101381.94;21075363;28;20047;-62
2023/06/03 19:24:42;;;;;;;7.25;6.15;;;;;;;24.76;35.82;101285.94;21072860;28;20085;-62
2023/06/03 19:34:43;;;;;;;7.32;6.15;;;;;;;25.27;36.17;101375.75;21075631;28;20044;-63
2023/06/03 19:44:44;;;;;;;8.98;6.18;;;;;;;25.08;35.88;101311.31;21090098;28;20044;-62
2023/06/03 19:54:46;;;;;;;7.07;6.38;;;;;;;25.25;35.59;101364.00;21048667;28;20056;-62
2023/06/03 20:04:47;;;;;;;8.60;6.57;;;;;;;25.24;35.77;101353.91;21089867;28;20043;-62
2023/06/03 20:14:51;;;;;;;8.77;6.60;;;;;;;25.21;35.89;101356.50;21089855;28;20040;-62
2023/06/03 20:24:53;;;;;;;9.45;6.97;;;;;;;25.22;35.86;101383.38;21084935;28;20036;-63
2023/06/03 20:34:55;;;;;;;10.27;7.32;;;;;;;25.20;35.62;101358.47;21088187;28;20403;-62
2023/06/03 20:44:57;;;;;;;9.40;7.57;;;;;;;25.18;35.79;101352.34;21084400;28;20441;-61
2023/06/03 20:54:58;;;;;;;9.18;7.30;;;;;;;25.18;35.85;101383.13;21085739;28;20074;-64
2023/06/03 21:05:00;;;;;;;9.68;7.32;;;;;;;25.16;35.83;101374.22;21078873;28;20093;-64
2023/06/03 21:15:02;;;;;;;11.52;8.20;;;;;;;25.12;35.60;101406.75;21049923;28;20070;-61
2023/06/03 21:25:04;;;;;;;10.75;8.52;;;;;;;25.10;35.80;101425.81;21054387;28;20032;-61
2023/06/03 21:35:06;;;;;;;13.45;9.90;;;;;;;25.05;35.54;101437.84;20997935;28;20044;-61
2023/06/03 21:45:07;;;;;;;12.50;9.07;;;;;;;25.05;35.57;101426.66;21067734;28;20479;-61
2023/06/03 21:55:09;;;;;;;11.43;10.07;;;;;;;25.02;35.37;101465.66;21079894;28;20399;-61
2023/06/03 22:05:10;;;;;;;13.45;10.55;;;;;;;24.92;35.48;101429.34;21078270;28;20089;-64
2023/06/03 22:15:12;;;;;;;13.60;10.38;;;;;;;24.99;35.47;101469.03;21076529;28;20475;-62
2023/06/03 22:25:13;;;;;;;16.05;11.45;;;;;;;24.79;35.40;101400.94;21076638;28;20044;-62
2023/06/03 22:35:14;;;;;;;14.23;11.43;;;;;;;24.93;35.60;101475.81;21076546;28;20060;-62
2023/06/03 22:45:16;;;;;;;14.27;11.70;;;;;;;24.96;35.58;101500.41;21077887;28;20036;-61
2023/06/03 22:55:18;;;;;;;15.73;11.60;;;;;;;25.06;36.29;101525.50;21075496;28;20085;-61
2023/06/03 23:05:19;;;;;;;16.27;11.40;;;;;;;25.17;36.80;101521.50;21076715;28;20105;-61
2023/06/03 23:15:21;;;;;;;13.70;11.18;;;;;;;25.26;36.95;101544.94;21073336;28;20040;-62
2023/06/03 23:25:22;;;;;;;13.85;11.00;;;;;;;25.39;37.21;101562.19;21075870;28;20051;-61
2023/06/03 23:35:24;;;;;;;14.55;10.65;;;;;;;25.46;37.35;101585.91;21073014;28;20043;-61
2023/06/03 23:45:25;;;;;;;13.73;11.02;;;;;;;25.57;37.56;101601.50;21074061;28;20395;-62
2023/06/03 23:55:27;;;;;;;14.88;9.93;;;;;;;25.65;37.27;101616.81;21071121;28;20048;-63
